Aérodrome :
LOGIN :

S'inscrire | Disclaimer

   EN    FR    IT 

 










Légende :    VFR   VFR Marginal   IFR   IFR Intensif   IFR Très Intensif
Visi : 
Plafond : 
>= 8 km
>= 3000ft
5 à 8 km
1000 à 3000 ft
1500m à 5 km
500 à 1000 ft
800 à 1500m
200 à 500 ft
< 800m
< 200 ft
Symboles :   Orages  Brouillard  Fortes neiges  Fortes précipitations  Vent > 20 kt
SIGMETs :   Divers  Orages  Givrage  Turbulence  Onde Orograph.  Cendres Volcan.






- Altitude de l'aérodrome : -15 ft
- Code IATA : RTM


EHRD - Rotterdam Zestienhoven

DERNIER METAR :
  • 071225Z AUTO 28011KT 240V320 9999 NSC 18/10 Q1020 NOSIG

METARs EXPIRÉS :
  • 071155Z AUTO 27011KT 230V320 9999 FEW032 18/10 Q1020 NOSIG
  • 071125Z AUTO 28011KT 240V320 9999 FEW036 18/10 Q1020 NOSIG
  • 071055Z AUTO 27011KT 240V340 9999 FEW035 18/09 Q1020 NOSIG
  • 071025Z AUTO 27009KT 220V340 9999 NSC 18/10 Q1020 NOSIG
  • 070955Z AUTO 28010KT 240V330 9999 FEW028 17/11 Q1020 NOSIG

TAF TAF EHRD
Valide du 07 à 12h jusqu'au 08 à 18h UTC


071114Z 0712/0818 27011KT 9999 SCT025
BECMG 0715/0718 24006KT
PROB40
TEMPO 0720/0803 7000 -RA -SHRA BKN018 FEW022TCU
BECMG 0803/0806 7000 -RA BKN012
TEMPO 0805/0810 4000 RA
PROB40 0810/0816 4000 RADZ SCT004 BKN006
PROB30
TEMPO 0812/0816 9999 NSW SCT018 BKN025



MET'MAP, la Météo Aéronautique d'un coup d'oeil ! - Copyright ORBIFLY Décembre 2007 - Disclaimer

ORBIFLY MET'MAP TEAM :

Programmation & Développement : Alexandra Zaïnal
Sur une idée originale de : Baudouin d'Aumeries
Assistance à la programmation : Marc-Olivier Méhu
Soutien technique & logistique : Manuel Goepfert

Contact : metmap@orbifly.com




SOURCES & CREDITS :

   NOAA